sensor_id;sensor_type;location;lat;lon;timestamp;pressure;altitude;pressure_sealevel;temperature;humidity
10460;BME280;54412;51.206;6.888;2023-04-09T00:00:35;101797.31;;;10.24;75.33
10460;BME280;54412;51.206;6.888;2023-04-09T00:03:01;101804.50;;;10.19;75.54
10460;BME280;54412;51.206;6.888;2023-04-09T00:05:27;101797.25;;;10.26;75.13
10460;BME280;54412;51.206;6.888;2023-04-09T00:07:53;101793.00;;;10.22;75.49
10460;BME280;54412;51.206;6.888;2023-04-09T00:10:19;101788.09;;;10.08;75.57
10460;BME280;54412;51.206;6.888;2023-04-09T00:12:45;101784.25;;;9.91;76.04
10460;BME280;54412;51.206;6.888;2023-04-09T00:15:11;101793.97;;;9.89;76.22
10460;BME280;54412;51.206;6.888;2023-04-09T00:17:37;101788.81;;;9.84;76.15
10460;BME280;54412;51.206;6.888;2023-04-09T00:20:03;101791.44;;;9.84;76.21
10460;BME280;54412;51.206;6.888;2023-04-09T00:22:29;101791.31;;;9.89;76.14
10460;BME280;54412;51.206;6.888;2023-04-09T00:24:55;101787.50;;;9.99;75.83
10460;BME280;54412;51.206;6.888;2023-04-09T00:27:22;101786.41;;;9.77;76.36
10460;BME280;54412;51.206;6.888;2023-04-09T00:29:47;101787.00;;;9.86;75.88
10460;BME280;54412;51.206;6.888;2023-04-09T00:32:13;101783.03;;;9.72;76.40
10460;BME280;54412;51.206;6.888;2023-04-09T00:34:39;101778.88;;;9.63;76.76
10460;BME280;54412;51.206;6.888;2023-04-09T00:37:05;101787.41;;;9.73;76.21
10460;BME280;54412;51.206;6.888;2023-04-09T00:39:31;101782.09;;;9.74;76.37
10460;BME280;54412;51.206;6.888;2023-04-09T00:41:59;101779.81;;;9.61;76.41
10460;BME280;54412;51.206;6.888;2023-04-09T00:44:27;101781.31;;;9.71;75.83
10460;BME280;54412;51.206;6.888;2023-04-09T00:46:53;101787.25;;;9.46;76.21
10460;BME280;54412;51.206;6.888;2023-04-09T00:49:20;101774.25;;;9.40;76.40
10460;BME280;54412;51.206;6.888;2023-04-09T00:51:47;101781.03;;;9.49;75.91
10460;BME280;54412;51.206;6.888;2023-04-09T00:54:13;101781.03;;;9.49;75.82
10460;BME280;54412;51.206;6.888;2023-04-09T00:56:41;101779.53;;;9.39;75.78
10460;BME280;54412;51.206;6.888;2023-04-09T00:59:07;101783.88;;;9.41;75.58
10460;BME280;54412;51.206;6.888;2023-04-09T01:01:33;101780.84;;;9.23;76.09
10460;BME280;54412;51.206;6.888;2023-04-09T01:03:59;101780.59;;;9.32;75.63
10460;BME280;54412;51.206;6.888;2023-04-09T01:06:50;101782.69;;;9.19;75.55
10460;BME280;54412;51.206;6.888;2023-04-09T01:09:41;101782.38;;;8.98;76.18
10460;BME280;54412;51.206;6.888;2023-04-09T01:12:47;101779.75;;;8.99;76.09
10460;BME280;54412;51.206;6.888;2023-04-09T01:15:22;101776.84;;;9.10;75.86
10460;BME280;54412;51.206;6.888;2023-04-09T01:20:47;101776.09;;;9.03;75.81
10460;BME280;54412;51.206;6.888;2023-04-09T01:23:31;101769.19;;;9.01;75.53
10460;BME280;54412;51.206;6.888;2023-04-09T01:28:53;101774.59;;;8.95;75.78
10460;BME280;54412;51.206;6.888;2023-04-09T01:31:30;101775.88;;;8.79;75.78
10460;BME280;54412;51.206;6.888;2023-04-09T01:33:58;101774.44;;;9.01;75.43
10460;BME280;54412;51.206;6.888;2023-04-09T01:36:27;101777.44;;;8.86;75.53
10460;BME280;54412;51.206;6.888;2023-04-09T01:38:56;101777.63;;;8.78;75.69
10460;BME280;54412;51.206;6.888;2023-04-09T01:41:23;101781.25;;;8.74;76.25
10460;BME280;54412;51.206;6.888;2023-04-09T01:43:52;101784.59;;;8.81;75.89
10460;BME280;54412;51.206;6.888;2023-04-09T01:46:19;101779.00;;;8.93;75.37
10460;BME280;54412;51.206;6.888;2023-04-09T01:48:46;101781.16;;;8.77;76.10
10460;BME280;54412;51.206;6.888;2023-04-09T01:51:13;101778.75;;;8.68;76.42
10460;BME280;54412;51.206;6.888;2023-04-09T01:53:40;101782.84;;;8.81;76.12
10460;BME280;54412;51.206;6.888;2023-04-09T01:56:07;101773.00;;;8.88;76.13
10460;BME280;54412;51.206;6.888;2023-04-09T01:58:33;101777.94;;;9.00;75.57
10460;BME280;54412;51.206;6.888;2023-04-09T02:01:21;101777.31;;;8.92;75.91
10460;BME280;54412;51.206;6.888;2023-04-09T02:03:57;101774.47;;;8.99;75.65
10460;BME280;54412;51.206;6.888;2023-04-09T02:06:38;101768.94;;;8.75;76.98
10460;BME280;54412;51.206;6.888;2023-04-09T02:09:08;101770.75;;;9.08;76.04
10460;BME280;54412;51.206;6.888;2023-04-09T02:11:37;101775.72;;;9.18;75.37
10460;BME280;54412;51.206;6.888;2023-04-09T02:14:06;101769.22;;;8.99;76.13
10460;BME280;54412;51.206;6.888;2023-04-09T02:16:34;101764.00;;;8.96;76.32
10460;BME280;54412;51.206;6.888;2023-04-09T02:19:01;101770.28;;;8.91;76.54
10460;BME280;54412;51.206;6.888;2023-04-09T02:21:27;101765.84;;;8.93;76.78
10460;BME280;54412;51.206;6.888;2023-04-09T02:23:54;101765.06;;;8.89;77.23
10460;BME280;54412;51.206;6.888;2023-04-09T02:26:21;101769.59;;;9.18;76.41
10460;BME280;54412;51.206;6.888;2023-04-09T02:28:47;101760.19;;;9.41;75.25
10460;BME280;54412;51.206;6.888;2023-04-09T02:31:13;101756.28;;;9.24;75.35
10460;BME280;54412;51.206;6.888;2023-04-09T02:33:39;101758.06;;;9.22;75.40
10460;BME280;54412;51.206;6.888;2023-04-09T02:36:05;101754.34;;;9.30;75.17
10460;BME280;54412;51.206;6.888;2023-04-09T02:38:31;101751.63;;;9.33;74.89
10460;BME280;54412;51.206;6.888;2023-04-09T02:40:57;101749.78;;;9.37;74.27
10460;BME280;54412;51.206;6.888;2023-04-09T02:43:23;101752.38;;;9.38;74.31
10460;BME280;54412;51.206;6.888;2023-04-09T02:45:49;101748.44;;;9.22;74.76
10460;BME280;54412;51.206;6.888;2023-04-09T02:48:14;101746.78;;;9.18;74.78
10460;BME280;54412;51.206;6.888;2023-04-09T02:50:40;101739.91;;;9.13;74.82
10460;BME280;54412;51.206;6.888;2023-04-09T02:53:06;101742.13;;;8.96;75.20
10460;BME280;54412;51.206;6.888;2023-04-09T02:55:31;101741.63;;;9.14;74.09
10460;BME280;54412;51.206;6.888;2023-04-09T02:57:57;101743.69;;;9.03;74.80
10460;BME280;54412;51.206;6.888;2023-04-09T03:00:23;101742.91;;;8.98;74.19
10460;BME280;54412;51.206;6.888;2023-04-09T03:02:49;101740.22;;;9.01;73.96
10460;BME280;54412;51.206;6.888;2023-04-09T03:05:14;101741.91;;;9.03;73.60
10460;BME280;54412;51.206;6.888;2023-04-09T03:07:40;101739.41;;;8.99;73.87
10460;BME280;54412;51.206;6.888;2023-04-09T03:10:06;101734.97;;;9.01;73.79
10460;BME280;54412;51.206;6.888;2023-04-09T03:12:32;101739.50;;;8.96;73.46
10460;BME280;54412;51.206;6.888;2023-04-09T03:14:57;101736.31;;;8.82;73.95
10460;BME280;54412;51.206;6.888;2023-04-09T03:17:23;101735.25;;;8.90;74.18
10460;BME280;54412;51.206;6.888;2023-04-09T03:19:52;101735.53;;;8.78;74.13
10460;BME280;54412;51.206;6.888;2023-04-09T03:22:18;101735.00;;;8.64;74.80
10460;BME280;54412;51.206;6.888;2023-04-09T03:24:43;101738.69;;;8.57;74.87
10460;BME280;54412;51.206;6.888;2023-04-09T03:27:09;101737.94;;;8.52;75.22
10460;BME280;54412;51.206;6.888;2023-04-09T03:29:35;101730.19;;;8.46;75.09
10460;BME280;54412;51.206;6.888;2023-04-09T03:32:00;101728.31;;;8.53;75.14
10460;BME280;54412;51.206;6.888;2023-04-09T03:34:26;101733.56;;;8.53;74.77
10460;BME280;54412;51.206;6.888;2023-04-09T03:36:52;101738.47;;;8.29;75.12
10460;BME280;54412;51.206;6.888;2023-04-09T03:39:17;101733.09;;;8.35;75.00
10460;BME280;54412;51.206;6.888;2023-04-09T03:41:43;101722.66;;;8.32;74.88
10460;BME280;54412;51.206;6.888;2023-04-09T03:44:09;101719.25;;;8.27;75.25
10460;BME280;54412;51.206;6.888;2023-04-09T03:46:35;101718.16;;;8.37;74.78
10460;BME280;54412;51.206;6.888;2023-04-09T03:49:00;101726.03;;;8.37;74.29
10460;BME280;54412;51.206;6.888;2023-04-09T03:51:26;101725.19;;;8.35;74.06
10460;BME280;54412;51.206;6.888;2023-04-09T03:53:52;101724.66;;;8.20;74.67
10460;BME280;54412;51.206;6.888;2023-04-09T03:56:17;101720.47;;;8.13;74.72
10460;BME280;54412;51.206;6.888;2023-04-09T03:58:43;101722.38;;;8.05;74.96
10460;BME280;54412;51.206;6.888;2023-04-09T04:01:09;101723.28;;;8.04;75.05
10460;BME280;54412;51.206;6.888;2023-04-09T04:03:35;101730.97;;;8.11;74.59
10460;BME280;54412;51.206;6.888;2023-04-09T04:06:02;101730.00;;;8.15;73.95
10460;BME280;54412;51.206;6.888;2023-04-09T04:08:28;101723.16;;;8.08;74.15
10460;BME280;54412;51.206;6.888;2023-04-09T04:10:54;101725.66;;;8.14;74.26
10460;BME280;54412;51.206;6.888;2023-04-09T04:13:20;101724.72;;;8.18;73.60
10460;BME280;54412;51.206;6.888;2023-04-09T04:15:46;101725.97;;;8.01;74.00
10460;BME280;54412;51.206;6.888;2023-04-09T04:18:12;101726.84;;;8.01;74.00
10460;BME280;54412;51.206;6.888;2023-04-09T04:20:38;101735.50;;;8.05;73.84
10460;BME280;54412;51.206;6.888;2023-04-09T04:23:04;101732.34;;;7.91;74.26
10460;BME280;54412;51.206;6.888;2023-04-09T04:25:30;101725.16;;;7.97;73.73
10460;BME280;54412;51.206;6.888;2023-04-09T04:27:56;101731.13;;;8.05;73.82
10460;BME280;54412;51.206;6.888;2023-04-09T04:30:22;101724.59;;;7.83;73.80
10460;BME280;54412;51.206;6.888;2023-04-09T04:32:49;101728.91;;;7.87;73.63
10460;BME280;54412;51.206;6.888;2023-04-09T04:35:14;101726.59;;;7.72;74.32
10460;BME280;54412;51.206;6.888;2023-04-09T04:37:40;101722.13;;;7.76;73.98
10460;BME280;54412;51.206;6.888;2023-04-09T04:40:07;101722.84;;;7.84;73.65
10460;BME280;54412;51.206;6.888;2023-04-09T04:42:34;101728.78;;;7.92;73.15
10460;BME280;54412;51.206;6.888;2023-04-09T04:45:00;101727.53;;;7.68;73.91
10460;BME280;54412;51.206;6.888;2023-04-09T04:47:25;101733.63;;;7.72;73.80
10460;BME280;54412;51.206;6.888;2023-04-09T04:49:51;101737.63;;;7.89;73.12
10460;BME280;54412;51.206;6.888;2023-04-09T04:52:17;101732.72;;;7.73;73.18
10460;BME280;54412;51.206;6.888;2023-04-09T04:54:43;101733.66;;;7.69;73.87
10460;BME280;54412;51.206;6.888;2023-04-09T04:57:09;101735.31;;;7.74;73.18
10460;BME280;54412;51.206;6.888;2023-04-09T04:59:39;101734.34;;;7.78;73.25
10460;BME280;54412;51.206;6.888;2023-04-09T05:02:08;101738.66;;;7.81;73.00
10460;BME280;54412;51.206;6.888;2023-04-09T05:04:34;101735.22;;;7.79;73.13
10460;BME280;54412;51.206;6.888;2023-04-09T05:07:00;101735.31;;;7.74;73.23
10460;BME280;54412;51.206;6.888;2023-04-09T05:09:25;101734.59;;;7.68;73.28
10460;BME280;54412;51.206;6.888;2023-04-09T05:11:51;101744.97;;;7.72;73.29
10460;BME280;54412;51.206;6.888;2023-04-09T05:14:17;101743.09;;;7.77;73.02
10460;BME280;54412;51.206;6.888;2023-04-09T05:16:43;101737.25;;;7.66;73.18
10460;BME280;54412;51.206;6.888;2023-04-09T05:19:09;101736.16;;;7.76;73.29
10460;BME280;54412;51.206;6.888;2023-04-09T05:21:34;101740.03;;;7.59;73.29
10460;BME280;54412;51.206;6.888;2023-04-09T05:24:00;101737.22;;;7.68;73.27
10460;BME280;54412;51.206;6.888;2023-04-09T05:26:26;101735.53;;;7.64;73.57
10460;BME280;54412;51.206;6.888;2023-04-09T05:28:52;101740.94;;;7.56;73.74
10460;BME280;54412;51.206;6.888;2023-04-09T05:31:17;101738.88;;;7.72;73.36
10460;BME280;54412;51.206;6.888;2023-04-09T05:33:43;101741.59;;;7.67;73.61
10460;BME280;54412;51.206;6.888;2023-04-09T05:36:15;101733.78;;;7.64;73.42
10460;BME280;54412;51.206;6.888;2023-04-09T05:38:42;101736.94;;;7.80;73.34
10460;BME280;54412;51.206;6.888;2023-04-09T05:41:08;101733.78;;;7.64;73.61
10460;BME280;54412;51.206;6.888;2023-04-09T05:43:34;101746.09;;;7.59;73.33
10460;BME280;54412;51.206;6.888;2023-04-09T05:45:59;101735.28;;;7.76;73.12
10460;BME280;54412;51.206;6.888;2023-04-09T05:48:25;101732.78;;;7.68;73.35
10460;BME280;54412;51.206;6.888;2023-04-09T05:50:52;101737.13;;;7.71;73.27
10460;BME280;54412;51.206;6.888;2023-04-09T05:53:18;101732.22;;;7.95;72.13
10460;BME280;54412;51.206;6.888;2023-04-09T05:55:45;101734.97;;;7.91;72.87
10460;BME280;54412;51.206;6.888;2023-04-09T05:58:11;101739.50;;;7.83;72.97
10460;BME280;54412;51.206;6.888;2023-04-09T06:00:37;101738.31;;;7.97;72.44
10460;BME280;54412;51.206;6.888;2023-04-09T06:03:04;101735.63;;;8.00;72.55
10460;BME280;54412;51.206;6.888;2023-04-09T06:05:30;101738.47;;;8.29;71.26
10460;BME280;54412;51.206;6.888;2023-04-09T06:07:55;101735.69;;;8.37;70.82
10460;BME280;54412;51.206;6.888;2023-04-09T06:10:22;101739.13;;;8.76;67.34
10460;BME280;54412;51.206;6.888;2023-04-09T06:12:48;101739.94;;;8.78;67.57
10460;BME280;54412;51.206;6.888;2023-04-09T06:15:14;101744.16;;;8.83;66.52
10460;BME280;54412;51.206;6.888;2023-04-09T06:17:40;101738.00;;;9.18;64.60
10460;BME280;54412;51.206;6.888;2023-04-09T06:20:06;101741.38;;;9.23;64.95
10460;BME280;54412;51.206;6.888;2023-04-09T06:22:32;101741.78;;;9.40;64.25
10460;BME280;54412;51.206;6.888;2023-04-09T06:24:58;101748.91;;;9.36;64.47
10460;BME280;54412;51.206;6.888;2023-04-09T06:27:24;101750.31;;;9.79;62.12
10460;BME280;54412;51.206;6.888;2023-04-09T06:29:51;101748.34;;;9.56;63.55
10460;BME280;54412;51.206;6.888;2023-04-09T06:32:16;101752.47;;;9.95;62.02
10460;BME280;54412;51.206;6.888;2023-04-09T06:34:42;101749.84;;;9.65;63.13
10460;BME280;54412;51.206;6.888;2023-04-09T06:37:08;101750.03;;;9.89;62.42
10460;BME280;54412;51.206;6.888;2023-04-09T06:39:33;101751.13;;;10.11;61.61
10460;BME280;54412;51.206;6.888;2023-04-09T06:41:59;101746.78;;;10.10;62.11
10460;BME280;54412;51.206;6.888;2023-04-09T06:44:25;101757.00;;;10.21;61.96
10460;BME280;54412;51.206;6.888;2023-04-09T06:46:51;101750.72;;;10.25;61.59
10460;BME280;54412;51.206;6.888;2023-04-09T06:49:16;101754.31;;;10.22;61.92
10460;BME280;54412;51.206;6.888;2023-04-09T06:51:42;101755.22;;;10.49;60.88
10460;BME280;54412;51.206;6.888;2023-04-09T06:54:07;101764.28;;;10.40;60.50
10460;BME280;54412;51.206;6.888;2023-04-09T06:56:33;101758.59;;;10.54;59.34
10460;BME280;54412;51.206;6.888;2023-04-09T06:58:59;101761.34;;;10.77;59.47
10460;BME280;54412;51.206;6.888;2023-04-09T07:01:25;101758.78;;;10.74;59.66
10460;BME280;54412;51.206;6.888;2023-04-09T07:03:51;101766.84;;;10.96;59.34
10460;BME280;54412;51.206;6.888;2023-04-09T07:06:17;101772.59;;;11.08;58.55
10460;BME280;54412;51.206;6.888;2023-04-09T07:08:43;101774.25;;;10.85;58.73
10460;BME280;54412;51.206;6.888;2023-04-09T07:11:09;101777.88;;;11.08;58.53
10460;BME280;54412;51.206;6.888;2023-04-09T07:13:35;101771.97;;;11.26;57.76
10460;BME280;54412;51.206;6.888;2023-04-09T07:16:00;101781.06;;;11.18;57.83
10460;BME280;54412;51.206;6.888;2023-04-09T07:18:26;101777.66;;;11.14;58.41
10460;BME280;54412;51.206;6.888;2023-04-09T07:20:52;101774.38;;;11.08;57.96
10460;BME280;54412;51.206;6.888;2023-04-09T07:23:18;101775.84;;;11.16;58.12
10460;BME280;54412;51.206;6.888;2023-04-09T07:25:44;101776.84;;;11.12;57.01
10460;BME280;54412;51.206;6.888;2023-04-09T07:28:10;101782.38;;;11.31;56.79
10460;BME280;54412;51.206;6.888;2023-04-09T07:30:38;101777.63;;;11.40;56.96
10460;BME280;54412;51.206;6.888;2023-04-09T07:33:04;101788.34;;;11.60;56.57
10460;BME280;54412;51.206;6.888;2023-04-09T07:35:29;101789.97;;;11.40;55.69
10460;BME280;54412;51.206;6.888;2023-04-09T07:37:56;101779.56;;;11.35;56.30
10460;BME280;54412;51.206;6.888;2023-04-09T07:40:23;101784.47;;;11.46;55.32
10460;BME280;54412;51.206;6.888;2023-04-09T07:42:49;101782.81;;;11.68;55.13
10460;BME280;54412;51.206;6.888;2023-04-09T07:45:15;101790.91;;;11.64;55.19
10460;BME280;54412;51.206;6.888;2023-04-09T07:47:41;101790.09;;;11.62;54.77
10460;BME280;54412;51.206;6.888;2023-04-09T07:50:08;101781.13;;;11.90;55.14
10460;BME280;54412;51.206;6.888;2023-04-09T07:52:34;101793.59;;;11.87;54.30
10460;BME280;54412;51.206;6.888;2023-04-09T07:55:00;101784.22;;;12.01;54.61
10460;BME280;54412;51.206;6.888;2023-04-09T07:57:25;101784.63;;;11.91;54.37
10460;BME280;54412;51.206;6.888;2023-04-09T07:59:52;101800.44;;;12.15;53.43
10460;BME280;54412;51.206;6.888;2023-04-09T08:02:18;101794.41;;;12.12;53.74
10460;BME280;54412;51.206;6.888;2023-04-09T08:04:44;101798.19;;;12.28;53.55
10460;BME280;54412;51.206;6.888;2023-04-09T08:07:10;101791.59;;;12.38;53.44
10460;BME280;54412;51.206;6.888;2023-04-09T08:09:36;101791.16;;;12.27;52.94
10460;BME280;54412;51.206;6.888;2023-04-09T08:12:01;101793.53;;;12.56;53.01
10460;BME280;54412;51.206;6.888;2023-04-09T08:14:27;101790.72;;;12.60;52.85
10460;BME280;54412;51.206;6.888;2023-04-09T08:16:53;101781.31;;;12.75;52.10
10460;BME280;54412;51.206;6.888;2023-04-09T08:19:19;101784.75;;;12.97;51.81
10460;BME280;54412;51.206;6.888;2023-04-09T08:21:45;101793.72;;;12.51;51.90
10460;BME280;54412;51.206;6.888;2023-04-09T08:24:13;101785.72;;;12.53;51.92
10460;BME280;54412;51.206;6.888;2023-04-09T08:26:40;101789.69;;;12.65;52.00
10460;BME280;54412;51.206;6.888;2023-04-09T08:29:08;101783.44;;;12.87;51.26
10460;BME280;54412;51.206;6.888;2023-04-09T08:31:34;101787.75;;;13.11;50.19
10460;BME280;54412;51.206;6.888;2023-04-09T08:34:01;101799.25;;;13.10;50.97
10460;BME280;54412;51.206;6.888;2023-04-09T08:36:27;101797.81;;;13.23;49.26
10460;BME280;54412;51.206;6.888;2023-04-09T08:38:53;101786.63;;;13.37;49.79
10460;BME280;54412;51.206;6.888;2023-04-09T08:41:24;101789.19;;;13.58;49.40
10460;BME280;54412;51.206;6.888;2023-04-09T08:43:51;101791.44;;;13.68;48.55
10460;BME280;54412;51.206;6.888;2023-04-09T08:46:18;101797.06;;;13.80;47.90
10460;BME280;54412;51.206;6.888;2023-04-09T08:48:45;101796.50;;;13.74;47.78
10460;BME280;54412;51.206;6.888;2023-04-09T08:51:14;101793.69;;;13.77;47.34
10460;BME280;54412;51.206;6.888;2023-04-09T08:53:47;101795.75;;;14.09;47.12
10460;BME280;54412;51.206;6.888;2023-04-09T08:56:15;101796.94;;;14.40;46.62
10460;BME280;54412;51.206;6.888;2023-04-09T08:58:43;101796.25;;;14.17;45.45
10460;BME280;54412;51.206;6.888;2023-04-09T09:01:25;101800.94;;;14.49;45.98
10460;BME280;54412;51.206;6.888;2023-04-09T09:06:27;101794.66;;;14.33;45.51
10460;BME280;54412;51.206;6.888;2023-04-09T09:09:15;101793.50;;;14.57;45.62
10460;BME280;54412;51.206;6.888;2023-04-09T09:11:46;101791.47;;;14.06;45.24
10460;BME280;54412;51.206;6.888;2023-04-09T09:14:19;101791.38;;;14.82;45.02
10460;BME280;54412;51.206;6.888;2023-04-09T09:22:02;101777.53;;;14.93;43.47
10460;BME280;54412;51.206;6.888;2023-04-09T09:24:30;101776.75;;;15.08;43.22
10460;BME280;54412;51.206;6.888;2023-04-09T09:26:57;101779.00;;;14.81;42.44
10460;BME280;54412;51.206;6.888;2023-04-09T09:29:24;101770.03;;;15.01;42.17
10460;BME280;54412;51.206;6.888;2023-04-09T09:31:52;101765.19;;;14.92;42.31
10460;BME280;54412;51.206;6.888;2023-04-09T09:34:20;101767.06;;;15.24;41.70
10460;BME280;54412;51.206;6.888;2023-04-09T09:36:46;101768.25;;;15.18;41.88
10460;BME280;54412;51.206;6.888;2023-04-09T09:39:13;101771.69;;;15.20;40.89
10460;BME280;54412;51.206;6.888;2023-04-09T09:41:42;101770.38;;;14.95;40.00
10460;BME280;54412;51.206;6.888;2023-04-09T09:44:10;101763.72;;;15.03;40.33
10460;BME280;54412;51.206;6.888;2023-04-09T09:46:39;101753.00;;;14.88;40.81
10460;BME280;54412;51.206;6.888;2023-04-09T09:49:08;101755.41;;;15.09;40.36
10460;BME280;54412;51.206;6.888;2023-04-09T09:51:38;101752.53;;;15.31;40.34
10460;BME280;54412;51.206;6.888;2023-04-09T09:54:07;101742.69;;;15.50;40.63
10460;BME280;54412;51.206;6.888;2023-04-09T09:56:37;101755.84;;;16.01;41.05
10460;BME280;54412;51.206;6.888;2023-04-09T09:59:15;101750.09;;;15.93;39.66
10460;BME280;54412;51.206;6.888;2023-04-09T10:01:43;101741.53;;;16.04;40.15
10460;BME280;54412;51.206;6.888;2023-04-09T10:04:13;101736.13;;;16.36;38.75
10460;BME280;54412;51.206;6.888;2023-04-09T10:06:44;101745.75;;;16.23;39.93
10460;BME280;54412;51.206;6.888;2023-04-09T10:09:10;101746.00;;;16.34;38.62
10460;BME280;54412;51.206;6.888;2023-04-09T10:11:38;101739.63;;;15.90;40.74
10460;BME280;54412;51.206;6.888;2023-04-09T10:14:07;101731.47;;;15.93;39.63
10460;BME280;54412;51.206;6.888;2023-04-09T10:16:33;101724.28;;;15.95;40.55
10460;BME280;54412;51.206;6.888;2023-04-09T10:19:00;101720.25;;;16.35;38.81
10460;BME280;54412;51.206;6.888;2023-04-09T10:24:14;101720.03;;;15.76;39.37
10460;BME280;54412;51.206;6.888;2023-04-09T10:26:42;101725.03;;;16.28;38.83
10460;BME280;54412;51.206;6.888;2023-04-09T10:29:12;101742.41;;;15.72;38.55
10460;BME280;54412;51.206;6.888;2023-04-09T10:32:04;101733.22;;;16.10;38.32
10460;BME280;54412;51.206;6.888;2023-04-09T10:34:35;101729.19;;;16.18;38.13
10460;BME280;54412;51.206;6.888;2023-04-09T10:37:02;101728.69;;;16.58;38.13
10460;BME280;54412;51.206;6.888;2023-04-09T10:39:31;101724.03;;;16.62;37.45
10460;BME280;54412;51.206;6.888;2023-04-09T10:42:07;101725.19;;;16.72;37.61
10460;BME280;54412;51.206;6.888;2023-04-09T10:44:39;101715.03;;;16.79;37.59
10460;BME280;54412;51.206;6.888;2023-04-09T10:47:08;101725.69;;;16.49;37.82
10460;BME280;54412;51.206;6.888;2023-04-09T10:49:39;101724.28;;;16.11;38.05
10460;BME280;54412;51.206;6.888;2023-04-09T10:59:40;101724.00;;;15.51;39.41
10460;BME280;54412;51.206;6.888;2023-04-09T11:05:31;101692.16;;;17.34;37.61
10460;BME280;54412;51.206;6.888;2023-04-09T11:10:30;101702.97;;;17.17;36.30
10460;BME280;54412;51.206;6.888;2023-04-09T11:12:55;101705.41;;;17.06;37.15
10460;BME280;54412;51.206;6.888;2023-04-09T11:15:22;101709.06;;;16.44;37.37
10460;BME280;54412;51.206;6.888;2023-04-09T11:17:49;101713.78;;;15.92;37.95
10460;BME280;54412;51.206;6.888;2023-04-09T11:20:19;101705.97;;;15.74;38.91
10460;BME280;54412;51.206;6.888;2023-04-09T11:22:48;101690.16;;;16.17;38.79
10460;BME280;54412;51.206;6.888;2023-04-09T11:25:33;101683.53;;;16.71;37.94
10460;BME280;54412;51.206;6.888;2023-04-09T11:28:02;101685.28;;;16.86;37.16
10460;BME280;54412;51.206;6.888;2023-04-09T11:30:29;101686.25;;;16.85;37.37
10460;BME280;54412;51.206;6.888;2023-04-09T11:32:55;101689.69;;;16.71;36.87
10460;BME280;54412;51.206;6.888;2023-04-09T11:35:22;101680.66;;;17.04;36.92
10460;BME280;54412;51.206;6.888;2023-04-09T11:37:49;101684.25;;;16.89;37.02
10460;BME280;54412;51.206;6.888;2023-04-09T11:40:21;101678.31;;;17.27;36.82
10460;BME280;54412;51.206;6.888;2023-04-09T11:42:50;101676.25;;;17.74;37.20
10460;BME280;54412;51.206;6.888;2023-04-09T11:45:17;101680.63;;;18.30;35.62
10460;BME280;54412;51.206;6.888;2023-04-09T11:47:44;101684.16;;;17.76;35.73
10460;BME280;54412;51.206;6.888;2023-04-09T11:50:13;101679.91;;;17.73;36.21
10460;BME280;54412;51.206;6.888;2023-04-09T11:52:39;101675.31;;;17.47;37.01
10460;BME280;54412;51.206;6.888;2023-04-09T11:55:08;101672.63;;;17.33;36.62
10460;BME280;54412;51.206;6.888;2023-04-09T11:57:45;101674.63;;;17.58;36.70
10460;BME280;54412;51.206;6.888;2023-04-09T12:00:16;101670.22;;;17.29;37.42
10460;BME280;54412;51.206;6.888;2023-04-09T12:02:47;101671.72;;;17.05;38.17
10460;BME280;54412;51.206;6.888;2023-04-09T12:07:48;101681.00;;;16.84;37.30
10460;BME280;54412;51.206;6.888;2023-04-09T12:10:14;101677.34;;;16.55;38.11
10460;BME280;54412;51.206;6.888;2023-04-09T12:12:46;101674.03;;;16.36;37.97
10460;BME280;54412;51.206;6.888;2023-04-09T12:15:20;101670.63;;;16.49;38.20
10460;BME280;54412;51.206;6.888;2023-04-09T12:17:49;101671.06;;;16.71;37.70
10460;BME280;54412;51.206;6.888;2023-04-09T12:20:38;101676.56;;;16.68;37.88
10460;BME280;54412;51.206;6.888;2023-04-09T12:23:06;101674.22;;;16.33;38.65
10460;BME280;54412;51.206;6.888;2023-04-09T12:25:39;101664.47;;;16.63;38.48
10460;BME280;54412;51.206;6.888;2023-04-09T12:28:07;101669.97;;;17.47;38.00
10460;BME280;54412;51.206;6.888;2023-04-09T12:30:33;101675.19;;;17.21;36.75
10460;BME280;54412;51.206;6.888;2023-04-09T12:32:59;101659.63;;;16.99;36.52
10460;BME280;54412;51.206;6.888;2023-04-09T12:35:25;101653.94;;;17.19;36.29
10460;BME280;54412;51.206;6.888;2023-04-09T12:37:51;101659.59;;;17.71;35.99
10460;BME280;54412;51.206;6.888;2023-04-09T12:40:18;101661.88;;;17.63;36.13
10460;BME280;54412;51.206;6.888;2023-04-09T12:42:45;101656.63;;;17.61;37.02
10460;BME280;54412;51.206;6.888;2023-04-09T12:45:16;101656.72;;;17.32;37.37
10460;BME280;54412;51.206;6.888;2023-04-09T12:47:42;101663.66;;;17.34;36.63
10460;BME280;54412;51.206;6.888;2023-04-09T12:50:10;101658.63;;;17.86;36.49
10460;BME280;54412;51.206;6.888;2023-04-09T12:52:36;101657.94;;;17.68;36.55
10460;BME280;54412;51.206;6.888;2023-04-09T12:55:03;101654.16;;;16.87;36.33
10460;BME280;54412;51.206;6.888;2023-04-09T12:57:30;101655.03;;;16.57;37.21
10460;BME280;54412;51.206;6.888;2023-04-09T12:59:55;101665.97;;;16.22;38.42
10460;BME280;54412;51.206;6.888;2023-04-09T13:02:22;101660.13;;;16.31;37.49
10460;BME280;54412;51.206;6.888;2023-04-09T13:04:49;101654.69;;;16.48;37.70
10460;BME280;54412;51.206;6.888;2023-04-09T13:07:16;101647.53;;;16.19;38.62
10460;BME280;54412;51.206;6.888;2023-04-09T13:09:45;101660.56;;;16.23;37.93
10460;BME280;54412;51.206;6.888;2023-04-09T13:12:12;101656.97;;;16.69;37.89
10460;BME280;54412;51.206;6.888;2023-04-09T13:14:40;101639.94;;;17.02;36.95
10460;BME280;54412;51.206;6.888;2023-04-09T13:17:06;101632.72;;;17.60;35.50
10460;BME280;54412;51.206;6.888;2023-04-09T13:19:31;101633.91;;;18.23;36.54
10460;BME280;54412;51.206;6.888;2023-04-09T13:21:57;101632.88;;;18.12;35.27
10460;BME280;54412;51.206;6.888;2023-04-09T13:24:23;101634.78;;;18.50;34.56
10460;BME280;54412;51.206;6.888;2023-04-09T13:26:49;101639.00;;;18.67;33.96
10460;BME280;54412;51.206;6.888;2023-04-09T13:29:15;101647.63;;;17.91;35.65